sensor_id;sensor_type;location;lat;lon;timestamp;temperature;humidity
5364;DHT22;2705;41.410;2.160;2023-12-07T00:02:04;10.70;99.90
5364;DHT22;2705;41.410;2.160;2023-12-07T00:04:34;10.60;99.90
5364;DHT22;2705;41.410;2.160;2023-12-07T00:07:03;10.70;99.90
5364;DHT22;2705;41.410;2.160;2023-12-07T00:09:32;10.70;99.90
5364;DHT22;2705;41.410;2.160;2023-12-07T00:12:01;10.60;99.90
5364;DHT22;2705;41.410;2.160;2023-12-07T00:14:30;10.60;99.90
5364;DHT22;2705;41.410;2.160;2023-12-07T00:16:58;10.60;99.90
5364;DHT22;2705;41.410;2.160;2023-12-07T00:19:27;10.60;99.90
5364;DHT22;2705;41.410;2.160;2023-12-07T00:21:57;10.60;99.90
5364;DHT22;2705;41.410;2.160;2023-12-07T00:24:26;10.60;99.90
5364;DHT22;2705;41.410;2.160;2023-12-07T00:26:55;10.60;99.90
5364;DHT22;2705;41.410;2.160;2023-12-07T00:29:24;10.50;99.90
5364;DHT22;2705;41.410;2.160;2023-12-07T00:31:53;10.50;99.90
5364;DHT22;2705;41.410;2.160;2023-12-07T00:34:22;10.50;99.90
5364;DHT22;2705;41.410;2.160;2023-12-07T00:36:51;10.40;99.90
5364;DHT22;2705;41.410;2.160;2023-12-07T00:39:21;10.40;99.90
5364;DHT22;2705;41.410;2.160;2023-12-07T00:41:50;10.50;99.90
5364;DHT22;2705;41.410;2.160;2023-12-07T00:44:18;10.40;99.90
5364;DHT22;2705;41.410;2.160;2023-12-07T00:46:47;10.40;99.90
5364;DHT22;2705;41.410;2.160;2023-12-07T00:49:16;10.40;99.90
5364;DHT22;2705;41.410;2.160;2023-12-07T00:51:45;10.40;99.90
5364;DHT22;2705;41.410;2.160;2023-12-07T00:54:14;10.40;99.90
5364;DHT22;2705;41.410;2.160;2023-12-07T00:56:45;10.50;99.90
5364;DHT22;2705;41.410;2.160;2023-12-07T00:59:14;10.50;99.90
5364;DHT22;2705;41.410;2.160;2023-12-07T01:01:42;10.50;99.90
5364;DHT22;2705;41.410;2.160;2023-12-07T01:04:11;10.50;99.90
5364;DHT22;2705;41.410;2.160;2023-12-07T01:06:40;10.50;99.90
5364;DHT22;2705;41.410;2.160;2023-12-07T01:09:10;10.80;99.90
5364;DHT22;2705;41.410;2.160;2023-12-07T01:11:40;10.80;99.90
5364;DHT22;2705;41.410;2.160;2023-12-07T01:14:11;10.90;99.90
5364;DHT22;2705;41.410;2.160;2023-12-07T01:16:39;10.80;99.90
5364;DHT22;2705;41.410;2.160;2023-12-07T01:19:08;11.10;99.90
5364;DHT22;2705;41.410;2.160;2023-12-07T01:21:39;11.30;99.90
5364;DHT22;2705;41.410;2.160;2023-12-07T01:24:08;11.40;99.90
5364;DHT22;2705;41.410;2.160;2023-12-07T01:26:42;11.60;99.90
5364;DHT22;2705;41.410;2.160;2023-12-07T01:29:12;11.30;99.90
5364;DHT22;2705;41.410;2.160;2023-12-07T01:31:42;11.40;99.90
5364;DHT22;2705;41.410;2.160;2023-12-07T01:34:11;11.20;99.90
5364;DHT22;2705;41.410;2.160;2023-12-07T01:36:40;11.00;99.90
5364;DHT22;2705;41.410;2.160;2023-12-07T01:39:08;10.80;99.90
5364;DHT22;2705;41.410;2.160;2023-12-07T01:41:39;10.60;99.90
5364;DHT22;2705;41.410;2.160;2023-12-07T01:44:08;10.70;99.90
5364;DHT22;2705;41.410;2.160;2023-12-07T01:46:39;10.80;99.90
5364;DHT22;2705;41.410;2.160;2023-12-07T01:49:08;10.80;99.90
5364;DHT22;2705;41.410;2.160;2023-12-07T01:51:37;10.60;99.90
5364;DHT22;2705;41.410;2.160;2023-12-07T01:54:06;10.50;99.90
5364;DHT22;2705;41.410;2.160;2023-12-07T01:56:34;10.60;99.90
5364;DHT22;2705;41.410;2.160;2023-12-07T01:59:03;10.90;99.90
5364;DHT22;2705;41.410;2.160;2023-12-07T02:01:36;10.90;99.90
5364;DHT22;2705;41.410;2.160;2023-12-07T02:04:06;11.00;99.90
5364;DHT22;2705;41.410;2.160;2023-12-07T02:06:35;11.10;99.90
5364;DHT22;2705;41.410;2.160;2023-12-07T02:09:04;11.20;99.90
5364;DHT22;2705;41.410;2.160;2023-12-07T02:11:33;11.20;99.90
5364;DHT22;2705;41.410;2.160;2023-12-07T02:14:02;11.10;99.90
5364;DHT22;2705;41.410;2.160;2023-12-07T02:16:33;11.10;99.90
5364;DHT22;2705;41.410;2.160;2023-12-07T02:19:09;11.20;99.90
5364;DHT22;2705;41.410;2.160;2023-12-07T02:21:44;11.30;99.90
5364;DHT22;2705;41.410;2.160;2023-12-07T02:24:16;11.30;99.90
5364;DHT22;2705;41.410;2.160;2023-12-07T02:26:49;11.10;99.90
5364;DHT22;2705;41.410;2.160;2023-12-07T02:29:18;11.10;99.90
5364;DHT22;2705;41.410;2.160;2023-12-07T02:31:47;10.80;99.90
5364;DHT22;2705;41.410;2.160;2023-12-07T02:34:16;11.00;99.90
5364;DHT22;2705;41.410;2.160;2023-12-07T02:36:46;10.90;99.90
5364;DHT22;2705;41.410;2.160;2023-12-07T02:39:16;11.00;99.90
5364;DHT22;2705;41.410;2.160;2023-12-07T02:41:45;10.80;99.90
5364;DHT22;2705;41.410;2.160;2023-12-07T02:44:17;10.80;99.90
5364;DHT22;2705;41.410;2.160;2023-12-07T02:46:46;10.60;99.90
5364;DHT22;2705;41.410;2.160;2023-12-07T02:49:14;10.60;99.90
5364;DHT22;2705;41.410;2.160;2023-12-07T02:51:43;10.60;99.90
5364;DHT22;2705;41.410;2.160;2023-12-07T02:54:12;10.40;99.90
5364;DHT22;2705;41.410;2.160;2023-12-07T02:56:41;10.40;99.90
5364;DHT22;2705;41.410;2.160;2023-12-07T02:59:09;10.40;99.90
5364;DHT22;2705;41.410;2.160;2023-12-07T03:01:42;10.60;99.90
5364;DHT22;2705;41.410;2.160;2023-12-07T03:04:10;10.60;99.90
5364;DHT22;2705;41.410;2.160;2023-12-07T03:06:39;10.60;99.90
5364;DHT22;2705;41.410;2.160;2023-12-07T03:09:08;10.70;99.90
5364;DHT22;2705;41.410;2.160;2023-12-07T03:11:37;10.80;99.90
5364;DHT22;2705;41.410;2.160;2023-12-07T03:14:05;10.90;99.90
5364;DHT22;2705;41.410;2.160;2023-12-07T03:16:34;11.00;99.90
5364;DHT22;2705;41.410;2.160;2023-12-07T03:19:05;10.80;99.90
5364;DHT22;2705;41.410;2.160;2023-12-07T03:21:34;10.70;99.90
5364;DHT22;2705;41.410;2.160;2023-12-07T03:24:07;11.00;99.90
5364;DHT22;2705;41.410;2.160;2023-12-07T03:26:36;11.10;99.90
5364;DHT22;2705;41.410;2.160;2023-12-07T03:29:05;11.00;99.90
5364;DHT22;2705;41.410;2.160;2023-12-07T03:31:34;10.80;99.90
5364;DHT22;2705;41.410;2.160;2023-12-07T03:34:03;10.80;99.90
5364;DHT22;2705;41.410;2.160;2023-12-07T03:36:35;10.60;99.90
5364;DHT22;2705;41.410;2.160;2023-12-07T03:39:04;10.50;99.90
5364;DHT22;2705;41.410;2.160;2023-12-07T03:41:33;10.50;99.90
5364;DHT22;2705;41.410;2.160;2023-12-07T03:44:02;10.60;99.90
5364;DHT22;2705;41.410;2.160;2023-12-07T03:46:31;10.60;99.90
5364;DHT22;2705;41.410;2.160;2023-12-07T03:49:00;11.10;99.90
5364;DHT22;2705;41.410;2.160;2023-12-07T03:51:29;11.20;99.90
5364;DHT22;2705;41.410;2.160;2023-12-07T03:54:00;11.20;99.90
5364;DHT22;2705;41.410;2.160;2023-12-07T03:56:30;11.40;99.90
5364;DHT22;2705;41.410;2.160;2023-12-07T03:58:59;11.10;99.90
5364;DHT22;2705;41.410;2.160;2023-12-07T04:01:29;11.10;99.90
5364;DHT22;2705;41.410;2.160;2023-12-07T04:03:58;11.00;99.90
5364;DHT22;2705;41.410;2.160;2023-12-07T04:06:28;11.00;99.90
5364;DHT22;2705;41.410;2.160;2023-12-07T04:08:56;11.20;99.90
5364;DHT22;2705;41.410;2.160;2023-12-07T04:11:27;11.20;99.90
5364;DHT22;2705;41.410;2.160;2023-12-07T04:13:56;11.20;99.90
5364;DHT22;2705;41.410;2.160;2023-12-07T04:16:25;11.30;99.90
5364;DHT22;2705;41.410;2.160;2023-12-07T04:18:54;11.40;99.90
5364;DHT22;2705;41.410;2.160;2023-12-07T04:21:22;11.40;99.90
5364;DHT22;2705;41.410;2.160;2023-12-07T04:23:51;11.50;99.90
5364;DHT22;2705;41.410;2.160;2023-12-07T04:26:20;11.30;99.90
5364;DHT22;2705;41.410;2.160;2023-12-07T04:28:50;11.30;99.90
5364;DHT22;2705;41.410;2.160;2023-12-07T04:31:19;11.30;99.90
5364;DHT22;2705;41.410;2.160;2023-12-07T04:33:48;11.30;99.90
5364;DHT22;2705;41.410;2.160;2023-12-07T04:36:17;11.10;99.90
5364;DHT22;2705;41.410;2.160;2023-12-07T04:38:46;11.30;99.90
5364;DHT22;2705;41.410;2.160;2023-12-07T04:41:16;11.30;99.90
5364;DHT22;2705;41.410;2.160;2023-12-07T04:43:44;11.40;99.90
5364;DHT22;2705;41.410;2.160;2023-12-07T04:46:15;11.30;99.90
5364;DHT22;2705;41.410;2.160;2023-12-07T04:48:44;11.10;99.90
5364;DHT22;2705;41.410;2.160;2023-12-07T04:51:13;11.00;99.90
5364;DHT22;2705;41.410;2.160;2023-12-07T04:53:42;11.00;99.90
5364;DHT22;2705;41.410;2.160;2023-12-07T04:56:11;11.00;99.90
5364;DHT22;2705;41.410;2.160;2023-12-07T04:58:40;11.00;99.90
5364;DHT22;2705;41.410;2.160;2023-12-07T05:01:09;11.00;99.90
5364;DHT22;2705;41.410;2.160;2023-12-07T05:03:39;10.80;99.90
5364;DHT22;2705;41.410;2.160;2023-12-07T05:06:08;10.80;99.90
5364;DHT22;2705;41.410;2.160;2023-12-07T05:08:38;11.00;99.90
5364;DHT22;2705;41.410;2.160;2023-12-07T05:11:07;10.90;99.90
5364;DHT22;2705;41.410;2.160;2023-12-07T05:13:36;10.80;99.90
5364;DHT22;2705;41.410;2.160;2023-12-07T05:16:05;10.60;99.90
5364;DHT22;2705;41.410;2.160;2023-12-07T05:18:34;10.50;99.90
5364;DHT22;2705;41.410;2.160;2023-12-07T05:21:05;10.50;99.90
5364;DHT22;2705;41.410;2.160;2023-12-07T05:23:34;10.50;99.90
5364;DHT22;2705;41.410;2.160;2023-12-07T05:26:06;10.70;99.90
5364;DHT22;2705;41.410;2.160;2023-12-07T05:28:35;10.70;99.90
5364;DHT22;2705;41.410;2.160;2023-12-07T05:31:05;11.00;99.90
5364;DHT22;2705;41.410;2.160;2023-12-07T05:33:34;10.80;99.90
5364;DHT22;2705;41.410;2.160;2023-12-07T05:36:05;10.70;99.90
5364;DHT22;2705;41.410;2.160;2023-12-07T05:38:34;10.50;99.90
5364;DHT22;2705;41.410;2.160;2023-12-07T05:41:02;10.40;99.90
5364;DHT22;2705;41.410;2.160;2023-12-07T05:43:31;10.50;99.90
5364;DHT22;2705;41.410;2.160;2023-12-07T05:46:01;10.70;99.90
5364;DHT22;2705;41.410;2.160;2023-12-07T05:48:30;10.90;99.90
5364;DHT22;2705;41.410;2.160;2023-12-07T05:50:59;10.90;99.90
5364;DHT22;2705;41.410;2.160;2023-12-07T05:53:29;10.60;99.90
5364;DHT22;2705;41.410;2.160;2023-12-07T05:56:00;10.50;99.90
5364;DHT22;2705;41.410;2.160;2023-12-07T05:58:31;10.60;99.90
5364;DHT22;2705;41.410;2.160;2023-12-07T06:01:05;10.60;99.90
5364;DHT22;2705;41.410;2.160;2023-12-07T06:03:35;10.40;99.90
5364;DHT22;2705;41.410;2.160;2023-12-07T06:06:04;10.60;99.90
5364;DHT22;2705;41.410;2.160;2023-12-07T06:08:35;10.70;99.90
5364;DHT22;2705;41.410;2.160;2023-12-07T06:11:04;10.60;99.90
5364;DHT22;2705;41.410;2.160;2023-12-07T06:13:32;10.60;99.90
5364;DHT22;2705;41.410;2.160;2023-12-07T06:16:02;10.70;99.90
5364;DHT22;2705;41.410;2.160;2023-12-07T06:18:30;10.50;99.90
5364;DHT22;2705;41.410;2.160;2023-12-07T06:20:59;10.40;99.90
5364;DHT22;2705;41.410;2.160;2023-12-07T06:23:30;10.40;99.90
5364;DHT22;2705;41.410;2.160;2023-12-07T06:26:02;10.70;99.90
5364;DHT22;2705;41.410;2.160;2023-12-07T06:28:32;10.80;99.90
5364;DHT22;2705;41.410;2.160;2023-12-07T06:31:04;10.80;99.90
5364;DHT22;2705;41.410;2.160;2023-12-07T06:33:33;10.70;99.90
5364;DHT22;2705;41.410;2.160;2023-12-07T06:36:03;10.80;99.90
5364;DHT22;2705;41.410;2.160;2023-12-07T06:38:32;10.60;99.90
5364;DHT22;2705;41.410;2.160;2023-12-07T06:41:02;10.60;99.90
5364;DHT22;2705;41.410;2.160;2023-12-07T06:43:31;10.80;99.90
5364;DHT22;2705;41.410;2.160;2023-12-07T06:46:00;10.60;99.90
5364;DHT22;2705;41.410;2.160;2023-12-07T06:48:29;10.90;99.90
5364;DHT22;2705;41.410;2.160;2023-12-07T06:50:58;11.00;99.90
5364;DHT22;2705;41.410;2.160;2023-12-07T06:53:27;10.90;99.90
5364;DHT22;2705;41.410;2.160;2023-12-07T06:55:56;10.80;99.90
5364;DHT22;2705;41.410;2.160;2023-12-07T06:58:27;10.80;99.90
5364;DHT22;2705;41.410;2.160;2023-12-07T07:00:56;10.80;99.90
5364;DHT22;2705;41.410;2.160;2023-12-07T07:03:25;10.90;99.90
5364;DHT22;2705;41.410;2.160;2023-12-07T07:05:55;10.90;99.90
5364;DHT22;2705;41.410;2.160;2023-12-07T07:08:23;11.10;99.90
5364;DHT22;2705;41.410;2.160;2023-12-07T07:10:53;11.10;99.90
5364;DHT22;2705;41.410;2.160;2023-12-07T07:13:21;11.10;99.90
5364;DHT22;2705;41.410;2.160;2023-12-07T07:15:52;11.00;99.90
5364;DHT22;2705;41.410;2.160;2023-12-07T07:18:22;11.10;99.90
5364;DHT22;2705;41.410;2.160;2023-12-07T07:20:52;11.10;99.90
5364;DHT22;2705;41.410;2.160;2023-12-07T07:23:21;11.10;99.90
5364;DHT22;2705;41.410;2.160;2023-12-07T07:25:50;10.90;99.90
5364;DHT22;2705;41.410;2.160;2023-12-07T07:28:20;11.00;99.90
5364;DHT22;2705;41.410;2.160;2023-12-07T07:30:48;11.00;99.90
5364;DHT22;2705;41.410;2.160;2023-12-07T07:33:20;10.70;99.90
5364;DHT22;2705;41.410;2.160;2023-12-07T07:35:49;11.00;99.90
5364;DHT22;2705;41.410;2.160;2023-12-07T07:38:21;10.90;99.90
5364;DHT22;2705;41.410;2.160;2023-12-07T07:40:50;10.90;99.90
5364;DHT22;2705;41.410;2.160;2023-12-07T07:43:19;11.00;99.90
5364;DHT22;2705;41.410;2.160;2023-12-07T07:45:48;11.00;99.90
5364;DHT22;2705;41.410;2.160;2023-12-07T07:48:17;11.00;99.90
5364;DHT22;2705;41.410;2.160;2023-12-07T07:50:47;10.80;99.90
5364;DHT22;2705;41.410;2.160;2023-12-07T07:53:16;11.00;99.90
5364;DHT22;2705;41.410;2.160;2023-12-07T07:55:45;11.00;99.90
5364;DHT22;2705;41.410;2.160;2023-12-07T07:58:14;11.10;99.90
5364;DHT22;2705;41.410;2.160;2023-12-07T08:00:43;11.10;99.90
5364;DHT22;2705;41.410;2.160;2023-12-07T08:03:14;11.40;99.90
5364;DHT22;2705;41.410;2.160;2023-12-07T08:05:44;11.30;99.90
5364;DHT22;2705;41.410;2.160;2023-12-07T08:08:14;11.40;99.90
5364;DHT22;2705;41.410;2.160;2023-12-07T08:10:43;11.40;99.90
5364;DHT22;2705;41.410;2.160;2023-12-07T08:13:22;11.50;99.90
5364;DHT22;2705;41.410;2.160;2023-12-07T08:15:51;11.60;99.90
5364;DHT22;2705;41.410;2.160;2023-12-07T08:18:24;11.70;99.90
5364;DHT22;2705;41.410;2.160;2023-12-07T08:20:54;11.90;99.90
5364;DHT22;2705;41.410;2.160;2023-12-07T08:23:25;11.80;99.90
5364;DHT22;2705;41.410;2.160;2023-12-07T08:25:54;11.90;99.90
5364;DHT22;2705;41.410;2.160;2023-12-07T08:28:24;12.00;99.90
5364;DHT22;2705;41.410;2.160;2023-12-07T08:30:53;11.90;99.90
5364;DHT22;2705;41.410;2.160;2023-12-07T08:33:22;11.90;99.90
5364;DHT22;2705;41.410;2.160;2023-12-07T08:35:51;11.60;99.90
5364;DHT22;2705;41.410;2.160;2023-12-07T08:38:22;12.10;99.90
5364;DHT22;2705;41.410;2.160;2023-12-07T08:40:53;12.20;99.90
5364;DHT22;2705;41.410;2.160;2023-12-07T08:43:22;12.10;99.90
5364;DHT22;2705;41.410;2.160;2023-12-07T08:45:51;12.10;99.90
5364;DHT22;2705;41.410;2.160;2023-12-07T08:48:27;12.10;99.90
5364;DHT22;2705;41.410;2.160;2023-12-07T08:50:56;12.10;99.90
5364;DHT22;2705;41.410;2.160;2023-12-07T08:53:25;12.10;99.90
5364;DHT22;2705;41.410;2.160;2023-12-07T08:55:56;12.20;99.90
5364;DHT22;2705;41.410;2.160;2023-12-07T08:58:25;12.30;99.90
5364;DHT22;2705;41.410;2.160;2023-12-07T09:00:54;12.40;99.90
5364;DHT22;2705;41.410;2.160;2023-12-07T09:03:23;12.50;99.90
5364;DHT22;2705;41.410;2.160;2023-12-07T09:05:59;12.70;99.90
5364;DHT22;2705;41.410;2.160;2023-12-07T09:08:28;12.70;99.90
5364;DHT22;2705;41.410;2.160;2023-12-07T09:10:59;12.80;99.90
5364;DHT22;2705;41.410;2.160;2023-12-07T09:13:28;12.80;99.90
5364;DHT22;2705;41.410;2.160;2023-12-07T09:15:57;12.80;99.90
5364;DHT22;2705;41.410;2.160;2023-12-07T09:18:26;12.70;99.90
5364;DHT22;2705;41.410;2.160;2023-12-07T09:20:55;12.80;99.90
5364;DHT22;2705;41.410;2.160;2023-12-07T09:23:24;12.80;99.90
5364;DHT22;2705;41.410;2.160;2023-12-07T09:25:53;12.70;99.90
5364;DHT22;2705;41.410;2.160;2023-12-07T09:28:23;12.70;99.90
5364;DHT22;2705;41.410;2.160;2023-12-07T09:30:52;12.80;99.90
5364;DHT22;2705;41.410;2.160;2023-12-07T09:33:21;12.60;99.90
5364;DHT22;2705;41.410;2.160;2023-12-07T09:35:50;12.60;99.90
5364;DHT22;2705;41.410;2.160;2023-12-07T09:38:19;12.60;99.90
5364;DHT22;2705;41.410;2.160;2023-12-07T09:40:51;12.70;99.90
5364;DHT22;2705;41.410;2.160;2023-12-07T09:43:22;12.80;99.90
5364;DHT22;2705;41.410;2.160;2023-12-07T09:45:51;13.00;99.90
5364;DHT22;2705;41.410;2.160;2023-12-07T09:48:22;13.10;99.90
5364;DHT22;2705;41.410;2.160;2023-12-07T09:50:55;13.20;99.90
5364;DHT22;2705;41.410;2.160;2023-12-07T09:53:24;13.10;99.90
5364;DHT22;2705;41.410;2.160;2023-12-07T09:55:54;13.10;99.90
5364;DHT22;2705;41.410;2.160;2023-12-07T09:58:24;13.20;99.90
5364;DHT22;2705;41.410;2.160;2023-12-07T10:01:06;13.20;99.90
5364;DHT22;2705;41.410;2.160;2023-12-07T10:03:35;13.20;99.90
5364;DHT22;2705;41.410;2.160;2023-12-07T10:06:04;13.10;99.90
5364;DHT22;2705;41.410;2.160;2023-12-07T10:08:33;13.00;99.90
5364;DHT22;2705;41.410;2.160;2023-12-07T10:11:04;13.00;99.90
5364;DHT22;2705;41.410;2.160;2023-12-07T10:13:35;13.10;99.90
5364;DHT22;2705;41.410;2.160;2023-12-07T10:16:06;13.00;99.90
5364;DHT22;2705;41.410;2.160;2023-12-07T10:18:36;13.30;99.90
5364;DHT22;2705;41.410;2.160;2023-12-07T10:21:10;13.40;99.90
5364;DHT22;2705;41.410;2.160;2023-12-07T10:23:40;13.40;99.90
5364;DHT22;2705;41.410;2.160;2023-12-07T10:26:11;13.40;99.90
5364;DHT22;2705;41.410;2.160;2023-12-07T10:28:44;13.50;99.90
5364;DHT22;2705;41.410;2.160;2023-12-07T10:31:15;13.40;99.90
5364;DHT22;2705;41.410;2.160;2023-12-07T10:33:47;13.50;99.90
5364;DHT22;2705;41.410;2.160;2023-12-07T10:36:16;13.60;99.90
5364;DHT22;2705;41.410;2.160;2023-12-07T10:38:44;13.70;99.90
5364;DHT22;2705;41.410;2.160;2023-12-07T10:41:14;13.60;99.90
5364;DHT22;2705;41.410;2.160;2023-12-07T10:43:45;13.80;99.90
5364;DHT22;2705;41.410;2.160;2023-12-07T10:46:17;14.00;99.90
5364;DHT22;2705;41.410;2.160;2023-12-07T10:48:48;14.10;99.90
5364;DHT22;2705;41.410;2.160;2023-12-07T10:51:17;14.20;99.90
5364;DHT22;2705;41.410;2.160;2023-12-07T10:53:51;14.20;99.90
5364;DHT22;2705;41.410;2.160;2023-12-07T10:56:23;14.30;99.90
5364;DHT22;2705;41.410;2.160;2023-12-07T10:58:56;14.40;99.90
5364;DHT22;2705;41.410;2.160;2023-12-07T11:01:26;14.40;99.90
5364;DHT22;2705;41.410;2.160;2023-12-07T11:03:56;14.30;99.90
5364;DHT22;2705;41.410;2.160;2023-12-07T11:06:24;14.40;99.90
5364;DHT22;2705;41.410;2.160;2023-12-07T11:08:55;14.60;99.90
5364;DHT22;2705;41.410;2.160;2023-12-07T11:11:27;14.70;99.90
5364;DHT22;2705;41.410;2.160;2023-12-07T11:13:59;14.70;99.90
5364;DHT22;2705;41.410;2.160;2023-12-07T11:16:30;14.80;99.90
5364;DHT22;2705;41.410;2.160;2023-12-07T11:18:59;14.90;99.90
5364;DHT22;2705;41.410;2.160;2023-12-07T11:21:28;14.90;99.90
5364;DHT22;2705;41.410;2.160;2023-12-07T11:23:58;15.10;99.90
5364;DHT22;2705;41.410;2.160;2023-12-07T11:26:28;15.10;99.90
5364;DHT22;2705;41.410;2.160;2023-12-07T11:29:00;15.00;99.90
5364;DHT22;2705;41.410;2.160;2023-12-07T11:31:29;15.00;99.90
5364;DHT22;2705;41.410;2.160;2023-12-07T11:34:05;15.10;99.90
5364;DHT22;2705;41.410;2.160;2023-12-07T11:36:35;15.20;99.90
5364;DHT22;2705;41.410;2.160;2023-12-07T11:39:15;15.10;99.90
5364;DHT22;2705;41.410;2.160;2023-12-07T11:41:55;15.00;99.90
5364;DHT22;2705;41.410;2.160;2023-12-07T11:44:32;15.00;99.90
5364;DHT22;2705;41.410;2.160;2023-12-07T11:47:01;15.00;99.90
5364;DHT22;2705;41.410;2.160;2023-12-07T11:49:30;15.10;99.90
5364;DHT22;2705;41.410;2.160;2023-12-07T11:52:12;15.20;99.90
5364;DHT22;2705;41.410;2.160;2023-12-07T11:54:43;15.30;99.90
5364;DHT22;2705;41.410;2.160;2023-12-07T11:57:12;15.40;99.90
5364;DHT22;2705;41.410;2.160;2023-12-07T11:59:42;15.40;99.90
5364;DHT22;2705;41.410;2.160;2023-12-07T12:02:12;15.50;99.90
5364;DHT22;2705;41.410;2.160;2023-12-07T12:04:41;15.60;99.90
5364;DHT22;2705;41.410;2.160;2023-12-07T12:07:10;15.50;99.90
5364;DHT22;2705;41.410;2.160;2023-12-07T12:09:39;15.50;99.90
5364;DHT22;2705;41.410;2.160;2023-12-07T12:12:08;15.60;99.90
5364;DHT22;2705;41.410;2.160;2023-12-07T12:14:37;15.70;99.90
5364;DHT22;2705;41.410;2.160;2023-12-07T12:17:07;15.70;99.90
5364;DHT22;2705;41.410;2.160;2023-12-07T12:19:36;15.80;99.90
5364;DHT22;2705;41.410;2.160;2023-12-07T12:22:05;15.90;99.90
5364;DHT22;2705;41.410;2.160;2023-12-07T12:24:35;15.80;99.90
5364;DHT22;2705;41.410;2.160;2023-12-07T12:27:04;15.80;99.90
5364;DHT22;2705;41.410;2.160;2023-12-07T12:29:33;15.90;99.90
5364;DHT22;2705;41.410;2.160;2023-12-07T12:32:03;15.90;99.90
5364;DHT22;2705;41.410;2.160;2023-12-07T12:34:35;16.00;99.90
5364;DHT22;2705;41.410;2.160;2023-12-07T12:37:04;16.00;99.90
5364;DHT22;2705;41.410;2.160;2023-12-07T12:39:34;15.90;99.90
5364;DHT22;2705;41.410;2.160;2023-12-07T12:42:03;15.90;99.90
5364;DHT22;2705;41.410;2.160;2023-12-07T12:44:32;15.90;99.90
5364;DHT22;2705;41.410;2.160;2023-12-07T12:47:05;15.80;99.90
5364;DHT22;2705;41.410;2.160;2023-12-07T12:49:39;15.80;99.90
5364;DHT22;2705;41.410;2.160;2023-12-07T12:52:09;15.90;99.90
5364;DHT22;2705;41.410;2.160;2023-12-07T12:54:42;15.90;99.90
5364;DHT22;2705;41.410;2.160;2023-12-07T12:57:11;15.70;99.90
5364;DHT22;2705;41.410;2.160;2023-12-07T12:59:41;15.70;99.90
5364;DHT22;2705;41.410;2.160;2023-12-07T13:02:10;15.60;99.90
5364;DHT22;2705;41.410;2.160;2023-12-07T13:04:40;15.60;99.90
5364;DHT22;2705;41.410;2.160;2023-12-07T13:07:09;15.50;99.90
5364;DHT22;2705;41.410;2.160;2023-12-07T13:09:39;15.60;99.90
5364;DHT22;2705;41.410;2.160;2023-12-07T13:12:08;15.60;99.90
5364;DHT22;2705;41.410;2.160;2023-12-07T13:14:37;15.70;99.90
5364;DHT22;2705;41.410;2.160;2023-12-07T13:17:15;15.70;99.90
5364;DHT22;2705;41.410;2.160;2023-12-07T13:19:46;15.80;99.90
5364;DHT22;2705;41.410;2.160;2023-12-07T13:22:15;15.80;99.90
5364;DHT22;2705;41.410;2.160;2023-12-07T13:24:45;15.80;99.90
5364;DHT22;2705;41.410;2.160;2023-12-07T13:27:15;15.90;99.90
5364;DHT22;2705;41.410;2.160;2023-12-07T13:29:45;15.90;99.90
5364;DHT22;2705;41.410;2.160;2023-12-07T13:32:13;15.80;99.90
5364;DHT22;2705;41.410;2.160;2023-12-07T13:34:42;15.90;99.90
5364;DHT22;2705;41.410;2.160;2023-12-07T13:37:13;15.90;99.90
5364;DHT22;2705;41.410;2.160;2023-12-07T13:39:42;15.90;99.90
5364;DHT22;2705;41.410;2.160;2023-12-07T13:42:11;15.80;99.90
5364;DHT22;2705;41.410;2.160;2023-12-07T13:44:40;15.80;99.90
5364;DHT22;2705;41.410;2.160;2023-12-07T13:47:10;15.70;99.90
5364;DHT22;2705;41.410;2.160;2023-12-07T13:49:39;15.70;99.90
5364;DHT22;2705;41.410;2.160;2023-12-07T13:52:08;15.80;99.90
5364;DHT22;2705;41.410;2.160;2023-12-07T13:54:40;15.80;99.90
5364;DHT22;2705;41.410;2.160;2023-12-07T13:57:20;15.70;99.90
5364;DHT22;2705;41.410;2.160;2023-12-07T13:59:49;15.50;99.90
5364;DHT22;2705;41.410;2.160;2023-12-07T14:02:18;15.50;99.90
5364;DHT22;2705;41.410;2.160;2023-12-07T14:04:48;15.50;99.90
5364;DHT22;2705;41.410;2.160;2023-12-07T14:07:18;15.50;99.90
5364;DHT22;2705;41.410;2.160;2023-12-07T14:09:49;15.60;99.90
5364;DHT22;2705;41.410;2.160;2023-12-07T14:12:25;15.80;99.90
5364;DHT22;2705;41.410;2.160;2023-12-07T14:14:56;15.80;99.90
5364;DHT22;2705;41.410;2.160;2023-12-07T14:17:26;15.80;99.90
5364;DHT22;2705;41.410;2.160;2023-12-07T14:20:10;15.80;99.90
5364;DHT22;2705;41.410;2.160;2023-12-07T14:22:59;15.70;99.90
5364;DHT22;2705;41.410;2.160;2023-12-07T14:25:33;15.80;99.90
5364;DHT22;2705;41.410;2.160;2023-12-07T14:28:02;15.60;99.90
5364;DHT22;2705;41.410;2.160;2023-12-07T14:30:31;15.50;99.90
5364;DHT22;2705;41.410;2.160;2023-12-07T14:33:00;15.50;99.90
5364;DHT22;2705;41.410;2.160;2023-12-07T14:35:29;15.60;99.90
5364;DHT22;2705;41.410;2.160;2023-12-07T14:37:58;15.50;99.90
5364;DHT22;2705;41.410;2.160;2023-12-07T14:40:27;15.50;99.90
5364;DHT22;2705;41.410;2.160;2023-12-07T14:42:57;15.30;99.90
5364;DHT22;2705;41.410;2.160;2023-12-07T14:45:26;15.40;99.90
5364;DHT22;2705;41.410;2.160;2023-12-07T14:47:55;15.30;99.90
5364;DHT22;2705;41.410;2.160;2023-12-07T14:50:25;15.40;99.90
5364;DHT22;2705;41.410;2.160;2023-12-07T14:52:54;15.40;99.90
5364;DHT22;2705;41.410;2.160;2023-12-07T14:55:23;15.30;99.90
5364;DHT22;2705;41.410;2.160;2023-12-07T14:57:53;15.30;99.90
5364;DHT22;2705;41.410;2.160;2023-12-07T15:00:25;15.20;99.90
5364;DHT22;2705;41.410;2.160;2023-12-07T15:02:56;15.20;99.90
5364;DHT22;2705;41.410;2.160;2023-12-07T15:05:25;15.20;99.90
5364;DHT22;2705;41.410;2.160;2023-12-07T15:07:54;15.20;99.90
5364;DHT22;2705;41.410;2.160;2023-12-07T15:10:23;15.20;99.90
5364;DHT22;2705;41.410;2.160;2023-12-07T15:12:52;15.30;99.90
5364;DHT22;2705;41.410;2.160;2023-12-07T15:15:21;15.10;99.90
5364;DHT22;2705;41.410;2.160;2023-12-07T15:17:51;15.00;99.90
5364;DHT22;2705;41.410;2.160;2023-12-07T15:20:23;15.10;99.90
5364;DHT22;2705;41.410;2.160;2023-12-07T15:22:52;15.20;99.90
5364;DHT22;2705;41.410;2.160;2023-12-07T15:25:21;15.20;99.90
5364;DHT22;2705;41.410;2.160;2023-12-07T15:27:50;15.10;99.90
5364;DHT22;2705;41.410;2.160;2023-12-07T15:30:19;15.00;99.90
5364;DHT22;2705;41.410;2.160;2023-12-07T15:32:52;15.00;99.90
5364;DHT22;2705;41.410;2.160;2023-12-07T15:35:21;15.00;99.90
5364;DHT22;2705;41.410;2.160;2023-12-07T15:37:50;15.00;99.90
5364;DHT22;2705;41.410;2.160;2023-12-07T15:40:18;15.00;99.90
5364;DHT22;2705;41.410;2.160;2023-12-07T15:42:47;15.10;99.90
5364;DHT22;2705;41.410;2.160;2023-12-07T15:45:16;15.10;99.90
5364;DHT22;2705;41.410;2.160;2023-12-07T15:47:45;15.10;99.90
5364;DHT22;2705;41.410;2.160;2023-12-07T15:50:16;15.10;99.90
5364;DHT22;2705;41.410;2.160;2023-12-07T15:52:45;15.00;99.90
5364;DHT22;2705;41.410;2.160;2023-12-07T15:55:17;15.00;99.90
5364;DHT22;2705;41.410;2.160;2023-12-07T15:57:47;15.00;99.90
5364;DHT22;2705;41.410;2.160;2023-12-07T16:00:16;15.10;99.90
5364;DHT22;2705;41.410;2.160;2023-12-07T16:02:44;15.10;99.90
5364;DHT22;2705;41.410;2.160;2023-12-07T16:05:13;15.00;99.90
5364;DHT22;2705;41.410;2.160;2023-12-07T16:07:44;14.90;99.90
5364;DHT22;2705;41.410;2.160;2023-12-07T16:10:12;14.90;99.90
5364;DHT22;2705;41.410;2.160;2023-12-07T16:12:41;14.90;99.90
5364;DHT22;2705;41.410;2.160;2023-12-07T16:15:10;14.70;99.90
5364;DHT22;2705;41.410;2.160;2023-12-07T16:17:39;14.50;99.90
5364;DHT22;2705;41.410;2.160;2023-12-07T16:20:08;14.50;99.90